x

West Bermuda - 240 Nm West Of Bermuda (41048) Wave Buoy

9:50pm - Mon 22nd Sep 2014 All times are UTC.

  • Sig Wave height 5.2ft
  • Swell Direction
  • Peak Period 8s
  • Average Period 6s
  • Wind
    9mph, 11mph gusts
  • Sea Temp 81°f
  • Air Temp 82°f
  • Sea Pressure 1017.9mb

More Historic Weather Station data

Upgrade to MSW Pro to gain access to the past 30 days of data for over 8000 Wavebouys and Weather Stations around the globe.

Join Pro

Comparision Forecast

View Surf forecast
   
Mon 09/22 9:50pm 5ft 8s 6s 9 11 mph 1017.9mb 81f 82f
8:50pm 4.5ft 7s 6s 9 11 mph 1017.5mb 81f 82f
7:50pm 5ft 8s 6s 11
mph
1017.6mb 81f 82f
6:50pm 5.5ft 8s 6s 9 11 mph 1017.5mb 82f 81f
5:50pm 6ft 8s 6s 9
mph
1017.8mb 81f 81f
4:50pm 5.5ft 8s 6s 9 11 mph 1018.1mb 81f 81f
3:50pm 5ft 7s 6s 11
mph
1018.3mb 81f 80f
2:50pm 6ft 7s 6s 13
mph
1018.4mb 81f 80f
1:50pm 6ft 7s 6s 13 16 mph 1018.3mb 81f 80f
12:50pm 6.5ft 7s 6s 13 16 mph 1018mb 81f 79f
11:50am 7ft 9s 6s 16 18 mph 1017.6mb 81f 79f
10:50am 7.5ft 9s 7s 11 13 mph 1017mb 81f 80f
9:50am 8ft 9s 6s 20 25 mph 1016.1mb 81f 77f
8:50am 7.5ft 9s 6s 20 25 mph 1015.6mb 81f 80f
7:50am 7ft 7s 6s 13 18 mph 1015.7mb 81f 81f
6:50am 7.5ft 7s 6s 16 22 mph 1015.5mb 80f 81f
5:50am 8ft 7s 6s 18 22 mph 1015.8mb 80f 81f
4:50am 7.5ft 7s 6s 18 20 mph 1016.2mb 80f 81f
3:50am 7ft 7s 6s 20 25 mph 1016.1mb 80f 81f
2:50am 7ft 6s 6s 20 22 mph 1015.9mb 80f 81f
1:50am 7ft 7s 6s 18 22 mph 1015.9mb 80f 81f
12:50am 7.5ft 7s 6s 20 25 mph 1015.4mb 80f 80f
Sun 09/21 11:50pm 7.5ft 7s 6s 20 25 mph 1014.8mb 80f 80f
10:50pm 7ft 7s 6s 20 25 mph 1014.9mb 80f 79f
9:50pm 7ft 7s 6s 25 36 mph 1014.3mb 80f 78f
8:50pm 7ft 7s 6s 22 29 mph 1014.8mb 80f 82f
7:50pm 6.5ft 7s 6s 22 25 mph 1014.5mb 80f 82f
6:50pm 6.5ft 8s 5s 18 22 mph 1014.8mb 80f 80f
5:50pm 7ft 7s 6s 20 27 mph 1015.5mb 80f 82f
4:50pm 7.5ft 7s 6s 20 22 mph 1016mb 80f 80f
3:50pm 7ft 7s 6s 18 22 mph 1016.5mb 80f 79f
2:50pm 8ft 7s 6s 20 27 mph 1017.5mb 80f 77f
1:50pm 8ft 7s 6s 22 27 mph 1017.3mb 80f 81f
12:50pm 8ft 7s 6s 20 27 mph 1016.8mb 80f 81f
11:50am 8ft 7s 6s 20 25 mph 1017mb 80f 77f
10:50am 7.5ft 7s 6s 22 27 mph 1016.2mb 80f 81f
9:50am 7ft 7s 6s 22 27 mph 1015.5mb 80f 81f
8:50am 8ft 8s 6s 22 29 mph 1015.2mb 80f 78f
7:50am 8ft 7s 6s 18 22 mph 1015.3mb 80f 78f
6:50am 7.5ft 7s 6s 22 27 mph 1016.2mb 81f 81f
5:50am 7ft 8s 6s 18 27 mph 1016.6mb 81f 80f
4:50am 6.5ft 7s 6s 22 27 mph 1017mb 81f 82f
3:50am 6.5ft 9s 6s 20 25 mph 1017.2mb 81f 81f
2:50am 6ft 8s 6s 20 25 mph 1017.5mb 81f 81f
1:50am 6ft 9s 6s 18 22 mph 1017.4mb 81f 81f
12:50am 6.5ft 9s 6s 16 18 mph 1017.4mb 81f 80f
Sat 09/20 11:50pm 6.5ft 8s 6s 16 18 mph 1017.3mb 81f 77f
10:50pm 6ft 8s 6s 22 34 mph 1016.9mb 81f 78f
9:50pm 6ft 9s 6s 18 20 mph 1017mb 81f 81f
8:50pm 6ft 9s 6s 18 22 mph 1017.1mb 81f 81f
7:50pm 6ft 9s 6s 16 18 mph 1017.2mb 81f 80f
6:50pm 6ft 9s 6s 16 18 mph 1017.2mb 81f 80f
5:50pm 6.5ft 8s 6s 20 22 mph 1017.7mb 81f 81f
4:50pm 6ft 9s 6s 16 18 mph 1018.7mb 81f 80f
3:50pm 6ft 8s 6s 20 25 mph 1019mb 81f 80f
2:50pm 5.5ft 8s 5s 22 27 mph 1019.1mb 81f 80f
1:50pm 5ft 9s 5s 18 22 mph 1019.3mb 81f 81f
12:50pm 5ft 7s 5s 20 25 mph 1019mb 81f 78f
11:50am 4.5ft 5s 5s 20 25 mph 1018.4mb 81f 80f
10:50am 4.5ft 7s 5s 18 22 mph 1018.2mb 81f 80f
9:50am 4.5ft 6s 5s 18 20 mph 1018.2mb 81f 80f
8:50am 4.5ft 7s 5s 16 20 mph 1018.1mb 81f 80f
7:50am 4.5ft 7s 5s 16 18 mph 1018mb 81f 80f
6:50am 4ft 7s 5s 16 18 mph 1018.1mb 81f 80f
5:50am 4ft 8s 5s 16 18 mph 1018.7mb 81f 80f
4:50am 4ft 8s 5s 16 18 mph 1019mb 81f 80f
3:50am 4ft 7s 5s 13 16 mph 1019.2mb 81f 80f
2:50am 3.5ft 8s 5s 13 18 mph 1019.5mb 81f 80f
1:50am 4ft 8s 5s 16 18 mph 1019.2mb 81f 80f
12:50am 3.5ft 8s 6s 13 16 mph 1019.2mb 81f 80f
Fri 09/19 11:50pm 3.5ft 8s 6s 13 16 mph 1018.2mb 81f 80f
10:50pm 3.5ft 8s 6s 11 16 mph 1017.9mb 81f 80f
9:50pm 3ft 8s 5s 11 13 mph 1017.4mb 81f 80f
8:50pm 3ft 6s 5s 11 13 mph 1017mb 81f 81f
7:50pm 3ft 6s 6s 9 11 mph 1016.9mb 81f 81f
6:50pm 3ft 8s 6s 9 11 mph 1016.9mb 81f 80f
5:50pm 3ft 6s 5s 9 11 mph 1017.1mb 81f 80f
4:50pm 3.5ft 6s 5s 9 11 mph 1017.3mb 81f 80f
3:50pm 3.5ft 6s 5s 9 11 mph 1017.7mb 81f 80f
2:50pm 3.5ft 6s 5s 9 11 mph 1018mb 81f 80f
1:50pm 3.5ft 6s 5s 9 11 mph 1017.9mb 81f 80f
12:50pm 3.5ft 6s 5s 9 11 mph 1017.3mb 81f 80f
11:50am 4ft 6s 5s 9 13 mph 1016.6mb 81f 80f
10:50am 4ft 6s 5s 11 13 mph 1015.7mb 81f 80f
9:50am 4ft 7s 5s 9 13 mph 1014.9mb 81f 79f
8:50am 4.5ft 6s 6s 9
mph
1014.2mb 81f 79f
7:50am 4.5ft 6s 6s 7 9 mph 1014mb 81f 79f
6:50am 4.5ft 6s 6s 9 11 mph 1014mb 81f 79f
5:50am 4.5ft 6s 6s 7 9 mph 1014mb 81f 79f
4:50am 4.5ft 7s 6s 4 7 mph 1014mb 81f 79f
3:50am 5ft 8s 6s 7
mph
1014.1mb 81f 78f
2:50am 5ft 8s 6s 11 13 mph 1014mb 81f 77f
1:50am 5ft 6s 6s 13 18 mph 1013.7mb 81f 78f
12:50am 5ft 7s 6s 7 9 mph 1013.6mb 81f 79f
Thu 09/18 11:50pm 5ft 8s 6s 9 11 mph 1012.7mb 81f 79f